createdAt,value
2024-01-31T00:00:11.780Z,100.00
2024-01-31T00:02:38.657Z,100.00
2024-01-31T00:05:05.872Z,100.00
2024-01-31T00:07:33.071Z,100.00
2024-01-31T00:09:59.784Z,100.00
2024-01-31T00:12:28.802Z,100.00
2024-01-31T00:14:55.617Z,100.00
2024-01-31T00:17:22.233Z,100.00
2024-01-31T00:19:49.068Z,100.00
2024-01-31T00:22:15.892Z,100.00
2024-01-31T00:24:42.488Z,100.00
2024-01-31T00:27:09.196Z,100.00
2024-01-31T00:29:38.970Z,100.00
2024-01-31T00:32:06.567Z,100.00
2024-01-31T00:34:33.813Z,100.00
2024-01-31T00:37:00.888Z,100.00
2024-01-31T00:39:32.630Z,100.00
2024-01-31T00:41:59.981Z,100.00
2024-01-31T00:44:27.694Z,100.00
2024-01-31T00:46:54.947Z,100.00
2024-01-31T00:49:25.776Z,100.00
2024-01-31T00:51:53.863Z,100.00
2024-01-31T00:54:21.653Z,100.00
2024-01-31T00:56:48.226Z,100.00
2024-01-31T00:59:14.802Z,100.00
2024-01-31T01:01:41.470Z,100.00
2024-01-31T01:04:09.155Z,100.00
2024-01-31T01:06:36.055Z,100.00
2024-01-31T01:09:02.729Z,100.00
2024-01-31T01:11:32.306Z,100.00
2024-01-31T01:13:59.208Z,100.00
2024-01-31T01:16:25.828Z,100.00
2024-01-31T01:18:52.550Z,100.00
2024-01-31T01:21:19.215Z,100.00
2024-01-31T01:23:45.778Z,100.00
2024-01-31T01:26:13.208Z,100.00
2024-01-31T01:28:40.097Z,100.00
2024-01-31T01:31:07.010Z,100.00
2024-01-31T01:33:33.686Z,100.00
2024-01-31T01:36:00.455Z,100.00
2024-01-31T01:38:27.112Z,100.00
2024-01-31T01:40:53.773Z,100.00
2024-01-31T01:43:21.745Z,100.00
2024-01-31T01:45:49.105Z,100.00
2024-01-31T01:48:19.150Z,100.00
2024-01-31T01:50:46.619Z,100.00
2024-01-31T01:53:13.524Z,100.00
2024-01-31T01:55:42.750Z,100.00
2024-01-31T01:58:09.791Z,100.00
2024-01-31T02:00:36.938Z,100.00
2024-01-31T02:03:05.373Z,100.00
2024-01-31T02:05:33.120Z,100.00
2024-01-31T02:08:00.453Z,100.00
2024-01-31T02:10:27.278Z,100.00
2024-01-31T02:12:54.216Z,100.00
2024-01-31T02:15:20.942Z,100.00
2024-01-31T02:17:47.564Z,100.00
2024-01-31T02:20:17.256Z,100.00
2024-01-31T02:22:48.552Z,100.00
2024-01-31T02:25:15.833Z,100.00
2024-01-31T02:27:42.969Z,100.00
2024-01-31T02:30:10.128Z,100.00
2024-01-31T02:32:37.275Z,100.00
2024-01-31T02:35:04.727Z,100.00
2024-01-31T02:37:31.422Z,100.00
2024-01-31T02:39:58.116Z,100.00
2024-01-31T02:42:24.785Z,100.00
2024-01-31T02:44:51.505Z,100.00
2024-01-31T02:47:18.809Z,100.00
2024-01-31T02:49:45.486Z,100.00
2024-01-31T02:52:12.239Z,100.00
2024-01-31T02:54:38.848Z,100.00
2024-01-31T02:57:05.412Z,100.00
2024-01-31T02:59:31.979Z,100.00
2024-01-31T03:01:59.767Z,100.00
2024-01-31T03:04:26.613Z,100.00
2024-01-31T03:06:53.355Z,100.00
2024-01-31T03:09:22.687Z,100.00
2024-01-31T03:11:49.234Z,100.00
2024-01-31T03:14:15.809Z,100.00
2024-01-31T03:16:42.490Z,100.00
2024-01-31T03:19:09.307Z,100.00
2024-01-31T03:21:37.105Z,100.00
2024-01-31T03:24:04.203Z,100.00
2024-01-31T03:26:30.838Z,100.00
2024-01-31T03:28:57.717Z,100.00
2024-01-31T03:31:24.346Z,100.00
2024-01-31T03:33:51.168Z,100.00
2024-01-31T03:36:17.787Z,100.00
2024-01-31T03:38:44.418Z,100.00
2024-01-31T03:41:11.013Z,100.00
2024-01-31T03:43:37.907Z,100.00
2024-01-31T03:46:08.061Z,100.00
2024-01-31T03:48:35.259Z,100.00
2024-01-31T03:51:02.143Z,100.00
2024-01-31T03:53:29.646Z,100.00
2024-01-31T03:55:56.558Z,100.00
2024-01-31T03:58:23.441Z,100.00
2024-01-31T04:00:50.186Z,100.00
2024-01-31T04:03:21.649Z,100.00
2024-01-31T04:05:49.068Z,100.00
2024-01-31T04:08:15.620Z,100.00
2024-01-31T04:10:42.401Z,100.00
2024-01-31T04:13:09.104Z,100.00
2024-01-31T04:15:36.859Z,100.00
2024-01-31T04:18:04.427Z,100.00
2024-01-31T04:20:31.357Z,100.00
2024-01-31T04:22:57.899Z,100.00
2024-01-31T04:25:24.583Z,100.00
2024-01-31T04:27:51.212Z,100.00
2024-01-31T04:30:19.527Z,100.00
2024-01-31T04:32:46.156Z,100.00
2024-01-31T04:35:13.496Z,100.00
2024-01-31T04:37:40.160Z,100.00
2024-01-31T04:40:07.627Z,100.00
2024-01-31T04:42:34.411Z,100.00
2024-01-31T04:45:00.999Z,100.00
2024-01-31T04:47:27.686Z,100.00
2024-01-31T04:49:56.884Z,100.00
2024-01-31T04:52:24.055Z,100.00
2024-01-31T04:54:51.801Z,100.00
2024-01-31T04:57:18.826Z,100.00
2024-01-31T04:59:45.570Z,100.00
2024-01-31T05:02:12.418Z,100.00
2024-01-31T05:04:40.803Z,100.00
2024-01-31T05:07:08.663Z,100.00
2024-01-31T05:09:35.582Z,100.00
2024-01-31T05:12:02.208Z,100.00
2024-01-31T05:14:28.787Z,100.00
2024-01-31T05:16:55.499Z,100.00
2024-01-31T05:19:22.244Z,100.00
2024-01-31T05:21:50.240Z,100.00
2024-01-31T05:24:18.012Z,100.00
2024-01-31T05:26:46.193Z,100.00
2024-01-31T05:29:13.193Z,100.00
2024-01-31T05:31:39.923Z,100.00
2024-01-31T05:34:06.927Z,100.00
2024-01-31T05:36:33.657Z,100.00
2024-01-31T05:39:00.399Z,100.00
2024-01-31T05:41:27.027Z,100.00
2024-01-31T05:43:53.761Z,100.00
2024-01-31T05:46:20.624Z,100.00
2024-01-31T05:48:48.236Z,100.00
2024-01-31T05:51:15.333Z,100.00
2024-01-31T05:53:41.999Z,100.00
2024-01-31T05:56:09.008Z,100.00
2024-01-31T05:58:35.607Z,100.00
2024-01-31T06:01:02.439Z,100.00
2024-01-31T06:03:29.971Z,100.00
2024-01-31T06:05:57.259Z,100.00
2024-01-31T06:08:25.051Z,100.00
2024-01-31T06:10:55.628Z,100.00
2024-01-31T06:13:22.364Z,100.00
2024-01-31T06:15:48.977Z,100.00
2024-01-31T06:18:18.625Z,100.00
2024-01-31T06:20:45.608Z,100.00
2024-01-31T06:23:12.655Z,100.00
2024-01-31T06:25:39.661Z,100.00
2024-01-31T06:28:07.552Z,100.00
2024-01-31T06:30:42.184Z,100.00
2024-01-31T06:33:09.441Z,100.00
2024-01-31T06:35:37.088Z,100.00
2024-01-31T06:38:04.340Z,100.00
2024-01-31T06:40:31.794Z,100.00
2024-01-31T06:42:59.363Z,100.00
2024-01-31T06:45:26.188Z,100.00
2024-01-31T06:47:53.616Z,100.00
2024-01-31T06:50:21.342Z,100.00
2024-01-31T06:52:48.379Z,100.00
2024-01-31T06:55:15.357Z,100.00
2024-01-31T06:57:43.220Z,100.00
2024-01-31T07:00:16.240Z,100.00
2024-01-31T07:02:42.979Z,100.00
2024-01-31T07:05:09.980Z,100.00
2024-01-31T07:07:36.896Z,100.00
2024-01-31T07:10:04.035Z,100.00
2024-01-31T07:12:30.766Z,100.00
2024-01-31T07:14:57.313Z,100.00
2024-01-31T07:17:24.231Z,100.00
2024-01-31T07:19:50.828Z,100.00
2024-01-31T07:22:17.515Z,100.00
2024-01-31T07:24:45.036Z,100.00
2024-01-31T07:27:11.719Z,100.00
2024-01-31T07:29:38.337Z,100.00
2024-01-31T07:32:05.237Z,100.00
2024-01-31T07:34:31.935Z,100.00
2024-01-31T07:36:58.692Z,100.00
2024-01-31T07:39:25.239Z,100.00
2024-01-31T07:41:51.999Z,100.00
2024-01-31T07:44:18.584Z,100.00
2024-01-31T07:46:45.314Z,100.00
2024-01-31T07:49:12.653Z,100.00
2024-01-31T07:51:45.830Z,100.00
2024-01-31T07:54:13.768Z,100.00
2024-01-31T07:56:40.366Z,100.00
2024-01-31T07:59:07.378Z,100.00
2024-01-31T08:01:34.469Z,100.00
2024-01-31T08:04:01.356Z,100.00
2024-01-31T08:06:28.218Z,100.00
2024-01-31T08:08:54.943Z,100.00
2024-01-31T08:11:21.634Z,100.00
2024-01-31T08:13:48.408Z,100.00
2024-01-31T08:16:16.324Z,100.00
2024-01-31T08:18:43.164Z,100.00
2024-01-31T08:21:09.788Z,100.00
2024-01-31T08:23:36.520Z,100.00
2024-01-31T08:26:04.804Z,100.00
2024-01-31T08:28:31.522Z,100.00
2024-01-31T08:30:58.238Z,100.00
2024-01-31T08:33:24.994Z,100.00
2024-01-31T08:35:51.677Z,100.00
2024-01-31T08:38:19.136Z,100.00
2024-01-31T08:40:45.758Z,100.00
2024-01-31T08:43:12.351Z,100.00
2024-01-31T08:45:38.969Z,100.00
2024-01-31T08:48:06.070Z,100.00
2024-01-31T08:50:32.721Z,100.00
2024-01-31T08:53:02.397Z,100.00
2024-01-31T08:55:29.118Z,100.00
2024-01-31T08:57:55.760Z,100.00
2024-01-31T09:00:22.555Z,100.00
2024-01-31T09:02:49.188Z,100.00
2024-01-31T09:05:15.850Z,100.00
2024-01-31T09:07:42.559Z,100.00
2024-01-31T09:10:09.227Z,100.00
2024-01-31T09:12:35.836Z,100.00
2024-01-31T09:15:02.468Z,100.00
2024-01-31T09:17:29.272Z,100.00
2024-01-31T09:19:55.830Z,100.00
2024-01-31T09:22:22.486Z,100.00
2024-01-31T09:24:49.044Z,100.00
2024-01-31T09:27:17.280Z,100.00
2024-01-31T09:29:44.645Z,100.00
2024-01-31T09:32:11.548Z,100.00
2024-01-31T09:34:38.274Z,100.00
2024-01-31T09:37:05.167Z,100.00
2024-01-31T09:39:31.901Z,100.00
2024-01-31T09:41:58.836Z,100.00
2024-01-31T09:44:26.358Z,100.00
2024-01-31T09:46:54.433Z,100.00
2024-01-31T09:49:22.554Z,100.00
2024-01-31T09:51:49.588Z,100.00
2024-01-31T09:54:17.586Z,100.00
2024-01-31T09:56:44.514Z,100.00
2024-01-31T09:59:11.822Z,100.00
2024-01-31T10:01:41.230Z,100.00
2024-01-31T10:04:08.103Z,100.00
2024-01-31T10:06:35.046Z,100.00
2024-01-31T10:09:03.941Z,100.00
2024-01-31T10:11:32.447Z,100.00
2024-01-31T10:13:59.329Z,100.00
2024-01-31T10:16:26.251Z,100.00
2024-01-31T10:18:53.192Z,100.00
2024-01-31T10:21:20.862Z,100.00
2024-01-31T10:24:01.321Z,100.00
2024-01-31T10:26:28.789Z,100.00
2024-01-31T10:29:04.534Z,100.00
2024-01-31T10:31:36.703Z,100.00
2024-01-31T10:34:05.197Z,100.00
2024-01-31T10:39:03.963Z,100.00
2024-01-31T10:41:32.931Z,100.00
2024-01-31T10:44:04.555Z,100.00
2024-01-31T10:46:31.349Z,100.00
2024-01-31T10:48:58.190Z,100.00
2024-01-31T10:51:25.476Z,100.00
2024-01-31T10:53:54.379Z,100.00
2024-01-31T10:56:22.342Z,100.00
2024-01-31T10:58:49.298Z,100.00
2024-01-31T11:01:16.312Z,100.00
2024-01-31T11:03:46.906Z,100.00
2024-01-31T11:06:14.217Z,100.00
2024-01-31T11:08:42.252Z,100.00
2024-01-31T11:11:12.418Z,100.00
2024-01-31T11:13:39.403Z,100.00
2024-01-31T11:16:06.538Z,100.00
2024-01-31T11:18:36.442Z,100.00
2024-01-31T11:21:11.607Z,100.00
2024-01-31T11:23:40.937Z,100.00
2024-01-31T11:26:09.393Z,100.00
2024-01-31T11:28:42.937Z,100.00
2024-01-31T11:31:09.686Z,100.00
2024-01-31T11:33:36.379Z,100.00
2024-01-31T11:36:03.545Z,100.00
2024-01-31T11:38:30.333Z,100.00
2024-01-31T11:40:56.990Z,100.00
2024-01-31T11:43:23.585Z,100.00
2024-01-31T11:45:50.647Z,100.00
2024-01-31T11:48:17.542Z,100.00
2024-01-31T11:50:44.605Z,100.00
2024-01-31T11:53:11.449Z,100.00
2024-01-31T11:55:38.306Z,100.00
2024-01-31T11:58:05.028Z,100.00
2024-01-31T12:00:32.719Z,100.00
2024-01-31T12:02:59.751Z,100.00
2024-01-31T12:05:26.494Z,100.00
2024-01-31T12:07:57.425Z,100.00
2024-01-31T12:10:27.166Z,100.00
2024-01-31T12:13:01.373Z,100.00
2024-01-31T12:15:28.565Z,100.00
2024-01-31T12:17:55.737Z,100.00
2024-01-31T12:20:22.806Z,100.00
2024-01-31T12:22:49.545Z,100.00
2024-01-31T12:25:17.279Z,100.00
2024-01-31T12:27:44.198Z,100.00
2024-01-31T12:30:11.539Z,100.00
2024-01-31T12:32:38.245Z,100.00
2024-01-31T12:35:05.610Z,100.00
2024-01-31T12:37:32.272Z,100.00
2024-01-31T12:39:58.908Z,100.00
2024-01-31T12:42:25.902Z,100.00
2024-01-31T12:44:53.158Z,100.00
2024-01-31T12:47:19.921Z,100.00
2024-01-31T12:49:46.560Z,100.00
2024-01-31T12:52:13.444Z,100.00
2024-01-31T12:54:40.271Z,100.00
2024-01-31T12:57:08.218Z,100.00
2024-01-31T12:59:34.978Z,100.00
2024-01-31T13:02:01.597Z,100.00
2024-01-31T13:04:29.247Z,100.00
2024-01-31T13:06:56.820Z,100.00
2024-01-31T13:09:23.870Z,100.00
2024-01-31T13:11:50.898Z,100.00
2024-01-31T13:14:17.662Z,100.00
2024-01-31T13:16:54.176Z,100.00
2024-01-31T13:19:26.144Z,100.00
2024-01-31T13:21:54.185Z,100.00
2024-01-31T13:24:22.417Z,100.00
2024-01-31T13:26:50.096Z,100.00
2024-01-31T13:29:17.076Z,100.00
2024-01-31T13:31:45.192Z,100.00
2024-01-31T13:34:12.055Z,100.00
2024-01-31T13:36:38.754Z,100.00
2024-01-31T13:39:05.769Z,100.00
2024-01-31T13:41:32.736Z,100.00
2024-01-31T13:43:59.794Z,100.00
2024-01-31T13:46:26.447Z,100.00
2024-01-31T13:48:53.274Z,100.00
2024-01-31T13:51:20.007Z,100.00
2024-01-31T13:53:46.875Z,100.00
2024-01-31T13:56:13.516Z,100.00
2024-01-31T13:58:40.197Z,100.00
2024-01-31T14:01:06.916Z,100.00
2024-01-31T14:03:33.613Z,99.16
2024-01-31T14:06:00.328Z,99.53
2024-01-31T14:08:27.103Z,98.28
2024-01-31T14:10:53.796Z,99.63
2024-01-31T14:13:20.530Z,99.90
2024-01-31T14:15:47.204Z,98.86
2024-01-31T14:18:16.581Z,99.30
2024-01-31T14:20:43.448Z,100.00
2024-01-31T14:23:23.778Z,99.99
2024-01-31T14:25:56.763Z,100.00
2024-01-31T14:28:23.726Z,99.78
2024-01-31T14:30:50.438Z,99.99
2024-01-31T14:33:17.213Z,98.07
2024-01-31T14:35:44.076Z,97.39
2024-01-31T14:38:10.628Z,97.58
2024-01-31T14:40:37.807Z,98.05
2024-01-31T14:43:06.723Z,98.03
2024-01-31T14:45:33.542Z,98.61
2024-01-31T14:48:00.294Z,97.13
2024-01-31T14:50:27.229Z,97.71
2024-01-31T14:52:53.816Z,98.87
2024-01-31T14:55:20.474Z,98.80
2024-01-31T14:57:46.991Z,98.12
2024-01-31T15:00:13.919Z,98.29
2024-01-31T15:02:40.555Z,96.08
2024-01-31T15:05:07.677Z,96.40
2024-01-31T15:07:34.456Z,95.12
2024-01-31T15:10:01.238Z,95.90
2024-01-31T15:12:27.873Z,95.67
2024-01-31T15:14:54.654Z,94.59
2024-01-31T15:17:21.245Z,94.11
2024-01-31T15:19:51.013Z,93.07
2024-01-31T15:22:18.191Z,93.98
2024-01-31T15:24:46.110Z,93.52
2024-01-31T15:27:12.939Z,91.46
2024-01-31T15:29:39.617Z,91.43
2024-01-31T15:32:07.598Z,91.37
2024-01-31T15:34:35.328Z,91.17
2024-01-31T15:37:02.343Z,92.78
2024-01-31T15:39:29.014Z,91.00
2024-01-31T15:41:57.137Z,90.84
2024-01-31T15:44:24.211Z,91.20
2024-01-31T15:46:51.206Z,91.10
2024-01-31T15:49:18.195Z,92.19
2024-01-31T15:51:47.359Z,91.96
2024-01-31T15:54:16.626Z,90.87
2024-01-31T15:56:43.409Z,90.50
2024-01-31T15:59:10.186Z,90.84
2024-01-31T16:01:36.742Z,90.75
2024-01-31T16:04:03.463Z,91.10
2024-01-31T16:06:30.195Z,90.68
2024-01-31T16:08:59.154Z,91.03
2024-01-31T16:11:27.311Z,91.44
2024-01-31T16:13:53.889Z,91.01
2024-01-31T16:16:20.563Z,91.30
2024-01-31T16:18:47.480Z,91.03
2024-01-31T16:21:14.653Z,90.86
2024-01-31T16:23:42.516Z,91.00
2024-01-31T16:26:09.214Z,90.98
2024-01-31T16:28:35.837Z,92.12
2024-01-31T16:31:05.304Z,90.33
2024-01-31T16:33:34.130Z,90.29
2024-01-31T16:36:01.148Z,90.58
2024-01-31T16:38:27.811Z,89.68
2024-01-31T16:40:54.520Z,90.66
2024-01-31T16:43:21.185Z,91.17
2024-01-31T16:45:47.856Z,91.54
2024-01-31T16:48:14.758Z,90.80
2024-01-31T16:50:41.763Z,90.20
2024-01-31T16:53:08.549Z,89.50
2024-01-31T16:55:35.368Z,90.83
2024-01-31T16:58:02.087Z,91.24
2024-01-31T17:00:29.088Z,90.79
2024-01-31T17:02:56.008Z,89.87
2024-01-31T17:05:23.074Z,89.88
2024-01-31T17:07:49.833Z,92.02
2024-01-31T17:10:16.666Z,92.38
2024-01-31T17:12:44.651Z,91.40
2024-01-31T17:15:11.985Z,92.55
2024-01-31T17:17:38.923Z,92.83
2024-01-31T17:20:06.911Z,91.94
2024-01-31T17:22:33.687Z,91.46
2024-01-31T17:25:02.263Z,91.05
2024-01-31T17:27:29.514Z,92.01
2024-01-31T17:29:56.414Z,90.94
2024-01-31T17:32:23.364Z,90.29
2024-01-31T17:34:50.149Z,91.20
2024-01-31T17:37:16.767Z,90.99
2024-01-31T17:39:43.429Z,90.80
2024-01-31T17:42:10.118Z,90.72
2024-01-31T17:44:36.876Z,91.00
2024-01-31T17:47:03.691Z,92.17
2024-01-31T17:49:30.382Z,92.16
2024-01-31T17:51:57.170Z,91.63
2024-01-31T17:54:23.882Z,92.00
2024-01-31T17:56:51.870Z,91.83
2024-01-31T17:59:19.252Z,92.06
2024-01-31T18:01:45.836Z,92.07
2024-01-31T18:04:12.642Z,91.54
2024-01-31T18:06:40.573Z,91.89
2024-01-31T18:09:11.245Z,91.42
2024-01-31T18:11:38.739Z,91.36
2024-01-31T18:14:06.034Z,94.33
2024-01-31T18:16:32.771Z,92.38
2024-01-31T18:19:03.796Z,91.37
2024-01-31T18:21:37.152Z,91.93
2024-01-31T18:24:04.781Z,91.31
2024-01-31T18:26:31.780Z,90.47
2024-01-31T18:28:59.111Z,90.32
2024-01-31T18:31:26.963Z,90.48
2024-01-31T18:33:54.863Z,91.23
2024-01-31T18:36:22.114Z,91.59
2024-01-31T18:38:48.883Z,90.96
2024-01-31T18:41:16.065Z,91.77
2024-01-31T18:43:43.240Z,92.29
2024-01-31T18:46:09.832Z,92.80
2024-01-31T18:48:36.568Z,91.91
2024-01-31T18:51:05.555Z,92.78
2024-01-31T18:53:32.381Z,92.26
2024-01-31T18:55:59.097Z,92.90
2024-01-31T18:58:27.483Z,91.78
2024-01-31T19:00:55.188Z,92.37
2024-01-31T19:03:21.799Z,92.27
2024-01-31T19:05:48.447Z,92.03
2024-01-31T19:08:15.128Z,91.61
2024-01-31T19:10:42.120Z,93.32
2024-01-31T19:13:15.277Z,92.69
2024-01-31T19:15:41.881Z,91.64
2024-01-31T19:18:08.612Z,91.31
2024-01-31T19:20:35.358Z,91.42
2024-01-31T19:23:02.163Z,92.12
2024-01-31T19:25:28.855Z,92.31
2024-01-31T19:27:56.468Z,92.81
2024-01-31T19:30:23.772Z,92.30
2024-01-31T19:32:50.730Z,92.74
2024-01-31T19:35:17.632Z,92.67
2024-01-31T19:37:45.222Z,91.55
2024-01-31T19:40:12.414Z,91.97
2024-01-31T19:42:38.944Z,91.79
2024-01-31T19:45:06.315Z,92.25
2024-01-31T19:47:32.857Z,92.39
2024-01-31T19:49:59.520Z,93.18
2024-01-31T19:52:26.977Z,92.98
2024-01-31T19:54:53.543Z,92.47
2024-01-31T19:57:20.066Z,91.99
2024-01-31T19:59:46.739Z,92.88
2024-01-31T20:02:13.846Z,93.08
2024-01-31T20:04:40.419Z,92.62
2024-01-31T20:07:07.831Z,91.95
2024-01-31T20:09:34.540Z,92.25
2024-01-31T20:12:01.102Z,93.83
2024-01-31T20:14:27.736Z,93.14
2024-01-31T20:16:54.473Z,92.36
2024-01-31T20:19:21.175Z,92.07
2024-01-31T20:21:47.890Z,91.84
2024-01-31T20:24:14.676Z,92.09
2024-01-31T20:26:41.394Z,92.10
2024-01-31T20:29:10.995Z,91.76
2024-01-31T20:31:37.669Z,91.63
2024-01-31T20:34:05.643Z,93.02
2024-01-31T20:36:32.518Z,92.81
2024-01-31T20:38:59.096Z,92.71
2024-01-31T20:41:27.591Z,92.22
2024-01-31T20:43:54.410Z,93.14
2024-01-31T20:46:21.513Z,93.32
2024-01-31T20:48:49.601Z,94.63
2024-01-31T20:51:16.594Z,94.62
2024-01-31T20:53:43.627Z,94.17
2024-01-31T20:56:11.010Z,94.86
2024-01-31T20:58:39.030Z,94.72
2024-01-31T21:01:09.075Z,93.75
2024-01-31T21:03:36.716Z,94.88
2024-01-31T21:06:04.484Z,96.41
2024-01-31T21:08:31.152Z,97.82
2024-01-31T21:11:00.315Z,98.32
2024-01-31T21:13:29.880Z,98.68
2024-01-31T21:15:56.426Z,98.70
2024-01-31T21:18:23.177Z,98.16
2024-01-31T21:20:49.822Z,98.45
2024-01-31T21:23:16.446Z,96.84
2024-01-31T21:25:43.115Z,98.33
2024-01-31T21:28:09.955Z,97.91
2024-01-31T21:30:36.468Z,98.71
2024-01-31T21:33:03.523Z,98.75
2024-01-31T21:35:30.354Z,99.35
2024-01-31T21:37:57.070Z,99.32
2024-01-31T21:40:25.303Z,99.27
2024-01-31T21:42:51.816Z,99.64
2024-01-31T21:45:18.356Z,100.00
2024-01-31T21:47:45.055Z,100.00
2024-01-31T21:50:11.736Z,100.00
2024-01-31T21:52:38.339Z,100.00
2024-01-31T21:55:05.652Z,100.00
2024-01-31T21:57:32.292Z,100.00
2024-01-31T21:59:59.035Z,100.00
2024-01-31T22:02:25.996Z,100.00
2024-01-31T22:04:53.460Z,100.00
2024-01-31T22:07:20.660Z,100.00
2024-01-31T22:09:48.434Z,100.00
2024-01-31T22:12:15.924Z,100.00
2024-01-31T22:14:42.926Z,100.00
2024-01-31T22:17:10.539Z,100.00
2024-01-31T22:19:40.754Z,100.00
2024-01-31T22:22:10.215Z,100.00
2024-01-31T22:24:37.320Z,100.00
2024-01-31T22:27:04.630Z,100.00
2024-01-31T22:29:31.393Z,100.00
2024-01-31T22:32:04.543Z,100.00
2024-01-31T22:34:32.540Z,100.00
2024-01-31T22:37:00.476Z,100.00
2024-01-31T22:39:27.113Z,100.00
2024-01-31T22:41:53.665Z,100.00
2024-01-31T22:44:20.220Z,100.00
2024-01-31T22:46:46.792Z,100.00
2024-01-31T22:49:13.833Z,100.00
2024-01-31T22:51:40.927Z,100.00
2024-01-31T22:54:07.634Z,100.00
2024-01-31T22:56:34.986Z,100.00
2024-01-31T22:59:01.730Z,100.00
2024-01-31T23:01:28.267Z,100.00
2024-01-31T23:03:54.929Z,100.00
2024-01-31T23:06:21.930Z,100.00
2024-01-31T23:08:48.857Z,100.00
2024-01-31T23:11:16.373Z,100.00
2024-01-31T23:13:42.994Z,100.00
2024-01-31T23:16:10.071Z,100.00
2024-01-31T23:18:36.824Z,100.00
2024-01-31T23:21:06.443Z,100.00
2024-01-31T23:23:33.481Z,100.00
2024-01-31T23:26:00.061Z,100.00
2024-01-31T23:28:27.517Z,100.00
2024-01-31T23:30:54.120Z,100.00
2024-01-31T23:33:22.132Z,100.00
2024-01-31T23:35:49.034Z,100.00
2024-01-31T23:38:15.673Z,100.00
2024-01-31T23:40:42.232Z,100.00
2024-01-31T23:43:08.770Z,100.00
2024-01-31T23:45:36.805Z,100.00
2024-01-31T23:48:03.937Z,100.00
2024-01-31T23:50:30.661Z,100.00
2024-01-31T23:52:57.296Z,100.00
2024-01-31T23:55:23.813Z,100.00
2024-01-31T23:57:50.508Z,100.00
